createdAt,value
2023-05-12T05:10:33.113Z,102201.16
2023-05-12T05:47:53.859Z,102273.59
2023-05-12T06:01:04.490Z,102261.50
2023-05-12T06:06:13.267Z,102271.06
2023-05-12T06:08:40.214Z,102260.53
2023-05-12T06:11:07.330Z,102258.94
2023-05-12T06:13:34.193Z,102255.41
2023-05-12T06:16:01.021Z,102228.66
2023-05-12T06:18:28.154Z,102290.06
2023-05-12T06:20:55.046Z,102235.41
2023-05-12T06:23:22.150Z,102265.78
2023-05-12T06:25:51.103Z,102259.63
2023-05-12T06:28:17.808Z,102236.06
2023-05-12T06:30:44.625Z,102239.53
2023-05-12T06:33:11.499Z,102252.25
2023-05-12T06:35:38.290Z,102259.28
2023-05-12T06:38:05.023Z,102297.34
2023-05-12T06:40:32.421Z,102298.25
2023-05-12T06:42:59.163Z,102292.94
2023-05-12T06:45:26.002Z,102292.28
2023-05-12T06:47:52.908Z,102295.56
2023-05-12T06:50:19.736Z,102271.41
2023-05-12T06:52:47.035Z,102229.03
2023-05-12T06:55:13.886Z,102233.97
2023-05-12T06:57:41.557Z,102293.63
2023-05-12T07:00:09.903Z,102263.06
2023-05-12T07:02:36.795Z,102266.59
2023-05-12T07:05:03.788Z,102284.94
2023-05-12T07:07:30.546Z,102232.03
2023-05-12T07:09:57.284Z,102258.81
2023-05-12T07:12:24.102Z,102244.91
2023-05-12T07:14:51.885Z,102225.09
2023-05-12T07:17:18.576Z,102309.94
2023-05-12T07:19:45.315Z,102296.03
2023-05-12T07:22:15.013Z,102276.00
2023-05-12T07:24:42.004Z,102247.72
2023-05-12T07:27:09.119Z,102273.78
2023-05-12T07:29:35.971Z,102251.63
2023-05-12T07:32:02.776Z,102326.91
2023-05-12T07:34:29.595Z,102283.06
2023-05-12T07:36:56.446Z,102298.25
2023-05-12T07:39:24.014Z,102314.53
2023-05-12T07:41:52.272Z,102278.81
2023-05-12T07:44:19.301Z,102314.94
2023-05-12T07:46:46.302Z,102279.50
2023-05-12T07:49:13.089Z,102314.06
2023-05-12T07:51:40.120Z,102307.88
2023-05-12T07:54:07.540Z,102268.25
2023-05-12T07:56:34.414Z,102306.88
2023-05-12T07:59:01.382Z,102309.69
2023-05-12T08:01:28.245Z,102308.47
2023-05-12T08:03:55.122Z,102305.19
2023-05-12T08:06:22.014Z,102305.00
2023-05-12T08:08:48.829Z,102306.94
2023-05-12T08:11:15.658Z,102279.28
2023-05-12T08:13:42.427Z,102323.50
2023-05-12T08:16:09.215Z,102284.31
2023-05-12T08:18:36.052Z,102316.50
2023-05-12T08:21:02.844Z,102308.72
2023-05-12T08:23:29.643Z,102314.31
2023-05-12T08:25:56.588Z,102290.44
2023-05-12T08:28:23.404Z,102325.84
2023-05-12T08:30:50.133Z,102306.63
2023-05-12T08:33:17.054Z,102295.59
2023-05-12T08:35:43.831Z,102290.53
2023-05-12T08:38:10.655Z,102353.66
2023-05-12T08:41:16.844Z,102346.78
2023-05-12T08:44:02.693Z,102291.38
2023-05-12T08:46:31.758Z,102336.38
2023-05-12T08:49:01.703Z,102344.81
2023-05-12T08:51:31.825Z,102302.66
2023-05-12T08:53:59.129Z,102312.66
2023-05-12T08:59:14.398Z,102332.72
2023-05-12T09:01:43.131Z,102298.84
2023-05-12T09:04:10.012Z,102356.72
2023-05-12T09:06:37.440Z,102306.47
2023-05-12T09:09:04.274Z,102331.94
2023-05-12T09:11:31.112Z,102307.13
2023-05-12T09:14:05.111Z,102350.13
2023-05-12T09:16:50.875Z,102348.72
2023-05-12T09:19:21.711Z,102357.53
2023-05-12T09:21:48.774Z,102311.69
2023-05-12T09:24:15.666Z,102327.81
2023-05-12T09:26:50.643Z,102364.84
2023-05-12T09:29:27.705Z,102350.81
2023-05-12T09:31:59.103Z,102368.25
2023-05-12T09:34:37.083Z,102314.94
2023-05-12T09:37:05.701Z,102359.66
2023-05-12T09:39:33.017Z,102359.38
2023-05-12T09:42:00.156Z,102352.59
2023-05-12T09:44:29.522Z,102334.66
2023-05-12T09:46:56.268Z,102369.50
2023-05-12T09:49:28.105Z,102389.16
2023-05-12T09:51:59.155Z,102353.22
2023-05-12T09:54:27.667Z,102372.69
2023-05-12T09:56:59.856Z,102361.47
2023-05-12T09:59:39.349Z,102398.47
2023-05-12T10:02:09.684Z,102401.28
2023-05-12T10:04:50.663Z,102356.34
2023-05-12T10:07:22.684Z,102403.78
2023-05-12T10:09:50.072Z,102402.13
2023-05-12T10:12:17.296Z,102339.78
2023-05-12T10:14:44.431Z,102352.47
2023-05-12T10:17:12.859Z,102318.25
2023-05-12T10:19:42.091Z,102372.56
2023-05-12T10:22:11.558Z,102365.88
2023-05-12T10:24:39.589Z,102419.53
2023-05-12T10:27:07.516Z,102408.94
2023-05-12T10:29:35.669Z,102379.13
2023-05-12T10:32:02.474Z,102414.03
2023-05-12T10:34:37.351Z,102419.53
2023-05-12T10:37:11.173Z,102379.13
2023-05-12T10:39:47.462Z,102405.53
2023-05-12T10:42:17.936Z,102384.03
2023-05-12T10:44:56.580Z,102431.47
2023-05-12T10:47:37.273Z,102384.34
2023-05-12T10:50:04.298Z,102384.38
2023-05-12T10:52:31.056Z,102431.91
2023-05-12T10:55:02.685Z,102360.44
2023-05-12T10:57:31.033Z,102430.84
2023-05-12T11:00:00.851Z,102442.38
2023-05-12T11:02:32.531Z,102376.06
2023-05-12T11:05:04.687Z,102432.44
2023-05-12T11:07:35.332Z,102411.41
2023-05-12T11:10:05.548Z,102371.19
2023-05-12T11:12:36.276Z,102409.75
2023-05-12T11:15:04.702Z,102369.50
2023-05-12T11:17:32.341Z,102378.00
2023-05-12T11:20:01.389Z,102396.59
2023-05-12T11:22:28.822Z,102366.63
2023-05-12T11:24:55.761Z,102386.59
2023-05-12T11:27:23.701Z,102434.28
2023-05-12T11:30:02.933Z,102444.59
2023-05-12T11:32:30.313Z,102436.38
2023-05-12T11:35:19.614Z,102392.63
2023-05-12T11:37:46.910Z,102395.28
2023-05-12T11:40:18.316Z,102394.28
2023-05-12T11:42:56.398Z,102411.31
2023-05-12T11:45:30.953Z,102414.53
2023-05-12T11:48:11.731Z,102401.00
2023-05-12T11:50:40.801Z,102377.09
2023-05-12T11:53:17.482Z,102369.31
2023-05-12T11:56:02.523Z,102431.81
2023-05-12T11:58:30.854Z,102409.28
2023-05-12T12:01:08.823Z,102430.34
2023-05-12T12:03:49.435Z,102425.16
2023-05-12T12:06:16.600Z,102416.47
2023-05-12T12:09:02.429Z,102443.25
2023-05-12T12:11:30.883Z,102392.09
2023-05-12T12:13:57.818Z,102387.72
2023-05-12T12:16:29.573Z,102401.19
2023-05-12T12:18:57.408Z,102414.84
2023-05-12T12:21:25.676Z,102369.38
2023-05-12T12:23:52.810Z,102440.84
2023-05-12T12:26:21.672Z,102435.81
2023-05-12T12:28:48.806Z,102388.78
2023-05-12T12:31:17.708Z,102422.19
2023-05-12T12:33:44.451Z,102389.97
2023-05-12T12:36:11.246Z,102445.88
2023-05-12T12:38:38.181Z,102402.53
2023-05-12T12:41:06.447Z,102429.25
2023-05-12T12:43:33.382Z,102414.22
2023-05-12T12:46:00.589Z,102393.34
2023-05-12T12:48:28.616Z,102419.81
2023-05-12T12:50:56.136Z,102440.16
2023-05-12T12:53:23.020Z,102419.75
2023-05-12T12:55:49.863Z,102395.88
2023-05-12T12:58:16.709Z,102414.28
2023-05-12T13:00:43.606Z,102417.59
2023-05-12T13:03:10.589Z,102427.09
2023-05-12T13:05:37.784Z,102403.84
2023-05-12T13:08:04.933Z,102425.97
2023-05-12T13:10:31.717Z,102452.78
2023-05-12T13:12:58.430Z,102386.53
2023-05-12T13:15:25.639Z,102417.34
2023-05-12T13:17:52.754Z,102403.91
2023-05-12T13:20:19.843Z,102372.84
2023-05-12T13:22:46.898Z,102436.75
2023-05-12T13:25:13.667Z,102394.50
2023-05-12T13:27:40.414Z,102431.16
2023-05-12T13:30:08.125Z,102420.75
2023-05-12T13:32:35.417Z,102365.16
2023-05-12T13:35:02.437Z,102359.56
2023-05-12T13:37:29.226Z,102394.53
2023-05-12T13:39:56.124Z,102393.22
2023-05-12T13:42:23.012Z,102385.47
2023-05-12T13:44:50.407Z,102446.28
2023-05-12T13:47:17.354Z,102398.03
2023-05-12T13:49:44.195Z,102439.03
2023-05-12T13:52:11.262Z,102366.16
2023-05-12T13:54:38.000Z,102399.03
2023-05-12T13:57:06.248Z,102438.00
2023-05-12T13:59:33.212Z,102402.75
2023-05-12T14:02:00.448Z,102410.53
2023-05-12T14:04:27.442Z,102385.41
2023-05-12T14:06:54.768Z,102405.66
2023-05-12T14:09:21.836Z,102393.19
2023-05-12T14:11:48.720Z,102390.41
2023-05-12T14:14:15.604Z,102385.38
2023-05-12T14:16:42.407Z,102333.06
2023-05-12T14:19:09.287Z,102396.78
2023-05-12T14:21:36.322Z,102391.38
2023-05-12T14:24:03.480Z,102370.72
2023-05-12T14:26:30.213Z,102414.31
2023-05-12T14:28:57.258Z,102365.63
2023-05-12T14:31:24.098Z,102371.84
2023-05-12T14:33:52.393Z,102385.59
2023-05-12T14:36:19.684Z,102433.34
2023-05-12T14:38:46.503Z,102434.28
2023-05-12T14:41:13.287Z,102377.59
2023-05-12T14:43:44.360Z,102354.38
2023-05-12T14:46:11.111Z,102362.66
2023-05-12T14:48:37.910Z,102385.41
2023-05-12T14:51:04.897Z,102373.19
2023-05-12T14:53:31.742Z,102375.59
2023-05-12T14:55:58.670Z,102358.31
2023-05-12T14:58:25.530Z,102325.53
2023-05-12T15:00:52.784Z,102368.13
2023-05-12T15:03:21.331Z,102359.25
2023-05-12T15:06:04.875Z,102340.53
2023-05-12T15:08:33.564Z,102344.44
2023-05-12T15:11:00.336Z,102352.53
2023-05-12T15:13:27.068Z,102373.38
2023-05-12T15:15:55.352Z,102383.50
2023-05-12T15:18:23.624Z,102333.34
2023-05-12T15:20:50.437Z,102401.03
2023-05-12T15:23:17.182Z,102368.34
2023-05-12T15:25:43.938Z,102382.53
2023-05-12T15:28:10.679Z,102394.72
2023-05-12T15:30:37.414Z,102370.50
2023-05-12T15:33:04.500Z,102338.06
2023-05-12T15:35:31.270Z,102391.66
2023-05-12T15:37:58.023Z,102413.41
2023-05-12T15:40:25.037Z,102345.81
2023-05-12T15:42:51.862Z,102353.88
2023-05-12T15:45:19.041Z,102337.72
2023-05-12T15:47:45.976Z,102375.66
2023-05-12T15:50:12.745Z,102401.41
2023-05-12T15:52:39.405Z,102379.31
2023-05-12T15:55:06.335Z,102348.19
2023-05-12T15:57:33.066Z,102394.75
2023-05-12T16:00:00.258Z,102401.25
2023-05-12T16:02:27.184Z,102338.25
2023-05-12T16:04:54.094Z,102382.41
2023-05-12T16:07:21.041Z,102354.88
2023-05-12T16:09:47.824Z,102329.13
2023-05-12T16:12:15.419Z,102300.56
2023-05-12T16:14:42.240Z,102341.22
2023-05-12T16:17:09.460Z,102304.69
2023-05-12T16:19:36.176Z,102336.63
2023-05-12T16:22:02.875Z,102393.66
2023-05-12T16:24:29.636Z,102351.91
2023-05-12T16:26:57.339Z,102382.63
2023-05-12T16:29:24.056Z,102304.81
2023-05-12T16:31:50.893Z,102325.50
2023-05-12T16:34:19.392Z,102292.97
2023-05-12T16:36:46.373Z,102335.69
2023-05-12T16:39:13.195Z,102334.06
2023-05-12T16:41:40.004Z,102322.13
2023-05-12T16:44:06.781Z,102335.75
2023-05-12T16:46:33.607Z,102334.81
2023-05-12T16:49:00.333Z,102342.97
2023-05-12T16:51:30.660Z,102351.91
2023-05-12T16:53:57.919Z,102340.44
2023-05-12T16:56:25.972Z,102348.56
2023-05-12T16:58:52.675Z,102392.16
2023-05-12T17:01:19.378Z,102337.72
2023-05-12T17:03:46.295Z,102363.75
2023-05-12T17:06:13.304Z,102336.41
2023-05-12T17:08:40.102Z,102301.56
2023-05-12T17:11:06.935Z,102333.34
2023-05-12T17:13:36.581Z,102340.72
2023-05-12T17:16:04.374Z,102316.44
2023-05-12T17:18:31.714Z,102324.56
2023-05-12T17:20:59.034Z,102322.34
2023-05-12T17:23:26.935Z,102314.03
2023-05-12T17:25:53.844Z,102315.34
2023-05-12T17:28:21.314Z,102337.22
2023-05-12T17:30:48.555Z,102376.38
2023-05-12T17:33:15.744Z,102319.78
2023-05-12T17:35:42.785Z,102339.88
2023-05-12T17:38:09.573Z,102360.22
2023-05-12T17:40:36.321Z,102329.19
2023-05-12T17:43:04.422Z,102336.84
2023-05-12T17:45:31.229Z,102335.53
2023-05-12T17:47:58.298Z,102297.22
2023-05-12T17:50:25.149Z,102348.19
2023-05-12T17:52:53.624Z,102305.44
2023-05-12T17:55:20.582Z,102302.81
2023-05-12T17:57:49.405Z,102326.41
2023-05-12T18:00:16.997Z,102339.22
2023-05-12T18:02:44.598Z,102369.69
2023-05-12T18:05:11.526Z,102299.94
2023-05-12T18:07:38.331Z,102346.44
2023-05-12T18:10:09.482Z,102380.84
2023-05-12T18:12:37.839Z,102364.09
2023-05-12T18:15:06.392Z,102309.72
2023-05-12T18:17:33.364Z,102387.00
2023-05-12T18:20:00.475Z,102339.03
2023-05-12T18:22:27.325Z,102342.28
2023-05-12T18:24:54.058Z,102346.56
2023-05-12T18:27:20.774Z,102344.31
2023-05-12T18:29:47.590Z,102345.13
2023-05-12T18:32:14.294Z,102310.84
2023-05-12T18:34:44.163Z,102322.66
2023-05-12T18:37:14.463Z,102359.63
2023-05-12T18:39:43.005Z,102386.22
2023-05-12T18:42:11.088Z,102373.13
2023-05-12T18:44:40.667Z,102373.56
2023-05-12T18:47:10.867Z,102343.19
2023-05-12T18:49:37.690Z,102344.84
2023-05-12T18:52:05.030Z,102384.88
2023-05-12T18:54:31.765Z,102369.44
2023-05-12T18:56:58.556Z,102349.97
2023-05-12T18:59:25.253Z,102377.59
2023-05-12T19:01:52.080Z,102351.88
2023-05-12T19:04:19.753Z,102359.47
2023-05-12T19:06:46.799Z,102350.41
2023-05-12T19:09:13.790Z,102393.84
2023-05-12T19:11:40.574Z,102391.22
2023-05-12T19:14:07.237Z,102357.38
2023-05-12T19:16:35.224Z,102348.75
2023-05-12T19:19:02.463Z,102380.47
2023-05-12T19:21:29.217Z,102356.28
2023-05-12T19:23:56.632Z,102354.41
2023-05-12T19:26:23.419Z,102358.94
2023-05-12T19:28:51.484Z,102345.03
2023-05-12T19:31:18.249Z,102376.41
2023-05-12T19:33:45.233Z,102374.25
2023-05-12T19:36:11.955Z,102363.69
2023-05-12T19:38:40.131Z,102326.19
2023-05-12T19:41:06.839Z,102329.59
2023-05-12T19:43:33.527Z,102337.75
2023-05-12T19:46:00.346Z,102346.56
2023-05-12T19:48:27.147Z,102340.44
2023-05-12T19:50:54.579Z,102382.13
2023-05-12T19:53:21.599Z,102384.59
2023-05-12T19:55:48.313Z,102358.53
2023-05-12T19:58:15.105Z,102331.09
2023-05-12T20:00:41.916Z,102343.94
2023-05-12T20:03:09.112Z,102375.72
2023-05-12T20:05:38.733Z,102312.94
2023-05-12T20:08:06.137Z,102352.13
2023-05-12T20:10:32.947Z,102303.63
2023-05-12T20:13:01.313Z,102320.13
2023-05-12T20:15:29.511Z,102329.50
2023-05-12T20:17:56.386Z,102347.94
2023-05-12T20:20:23.926Z,102353.91
2023-05-12T20:22:50.852Z,102378.03
2023-05-12T20:25:18.031Z,102340.00
2023-05-12T20:27:45.303Z,102398.16
2023-05-12T20:30:12.846Z,102325.38
2023-05-12T20:32:39.785Z,102347.78
2023-05-12T20:35:07.010Z,102386.78
2023-05-12T20:37:33.826Z,102387.59
2023-05-12T20:40:00.735Z,102389.41
2023-05-12T20:42:27.518Z,102392.03
2023-05-12T20:44:54.425Z,102399.09
2023-05-12T20:47:21.273Z,102311.69
2023-05-12T20:49:48.318Z,102352.41
2023-05-12T20:52:15.049Z,102342.03
2023-05-12T20:54:41.818Z,102352.28
2023-05-12T20:57:10.413Z,102372.19
2023-05-12T20:59:37.312Z,102264.00
2023-05-12T21:02:04.210Z,102356.66
2023-05-12T21:04:31.092Z,102316.81
2023-05-12T21:06:57.865Z,102403.66
2023-05-12T21:09:24.706Z,102357.91
2023-05-12T21:11:51.448Z,102348.19
2023-05-12T21:14:18.142Z,102369.03
2023-05-12T21:16:45.201Z,102359.50
2023-05-12T21:19:12.200Z,102364.72
2023-05-12T21:21:39.014Z,102355.19
2023-05-12T21:24:06.141Z,102332.53
2023-05-12T21:26:33.572Z,102381.22
2023-05-12T21:29:03.075Z,102352.50
2023-05-12T21:31:30.592Z,102341.44
2023-05-12T21:33:57.393Z,102336.97
2023-05-12T21:36:24.236Z,102380.47
2023-05-12T21:38:50.953Z,102355.16
2023-05-12T21:41:17.917Z,102395.25
2023-05-12T21:43:44.664Z,102365.66
2023-05-12T21:46:11.521Z,102363.06
2023-05-12T21:48:38.336Z,102349.19
2023-05-12T21:51:05.356Z,102340.44
2023-05-12T21:53:32.200Z,102357.81
2023-05-12T21:55:59.660Z,102360.44
2023-05-12T21:58:26.396Z,102363.94
2023-05-12T22:00:53.422Z,102357.97
2023-05-12T22:03:22.349Z,102360.03
2023-05-12T22:05:49.130Z,102343.31
2023-05-12T22:08:16.517Z,102351.19
2023-05-12T22:10:43.541Z,102396.47
2023-05-12T22:13:10.632Z,102333.06
2023-05-12T22:15:37.565Z,102382.44
2023-05-12T22:18:04.356Z,102304.38
2023-05-12T22:20:31.224Z,102366.03
2023-05-12T22:22:58.085Z,102358.25
2023-05-12T22:25:24.825Z,102338.31
2023-05-12T22:27:51.605Z,102318.38
2023-05-12T22:30:19.111Z,102307.00
2023-05-12T22:32:46.354Z,102273.22
2023-05-12T22:35:13.259Z,102359.13
2023-05-12T22:37:40.256Z,102310.66
2023-05-12T22:40:07.773Z,102319.25
2023-05-12T22:42:34.559Z,102351.31
2023-05-12T22:45:05.070Z,102276.59
2023-05-12T22:47:32.778Z,102308.03
2023-05-12T22:50:00.281Z,102370.50
2023-05-12T22:52:27.748Z,102340.00
2023-05-12T22:54:55.084Z,102306.13
2023-05-12T22:57:22.863Z,102316.63
2023-05-12T22:59:50.175Z,102357.47
2023-05-12T23:02:17.401Z,102340.88
2023-05-12T23:04:44.842Z,102294.19
2023-05-12T23:07:11.741Z,102359.22
2023-05-12T23:09:38.600Z,102387.03
2023-05-12T23:12:06.437Z,102342.72
2023-05-12T23:14:33.273Z,102314.09
2023-05-12T23:17:00.052Z,102295.91
2023-05-12T23:19:26.804Z,102292.44
2023-05-12T23:21:53.658Z,102343.69
2023-05-12T23:24:20.540Z,102316.72
2023-05-12T23:26:47.302Z,102359.38
2023-05-12T23:29:14.294Z,102339.31
2023-05-12T23:31:41.218Z,102375.81
2023-05-12T23:34:08.021Z,102344.69
2023-05-12T23:36:34.897Z,102352.56
2023-05-12T23:39:01.735Z,102321.34
2023-05-12T23:41:31.797Z,102326.50
2023-05-12T23:43:58.904Z,102294.44
2023-05-12T23:46:26.360Z,102271.78
2023-05-12T23:48:55.829Z,102297.00
2023-05-12T23:51:23.729Z,102257.94
2023-05-12T23:53:50.990Z,102315.31
2023-05-12T23:56:17.924Z,102362.09
2023-05-12T23:58:44.798Z,102165.16
